Willard, Montana
Current Conditions -  °F | °C
As of 11:51 AM on Friday 21 Nov 2014 (Local Time) from KBHK Reporting Station
Clear Clear  
Wind Chill: 35°   Ceiling: Unl
Heat Index: 42°   Visibility: 10mi
Dew Point: 28°   Wind: 14mph
Humidity: 58%   Direction: 260°W
Pressure: 29.76"   Gusts: NA
Location:  46.19°N, 104.38°W
Report Text: KBHK 211851Z AUTO 26012KT 10SM CLR 06/M02 A2976 RMK AO2 SLP105 T00561022
Loading
Personal Weather Stations






























Interactive Weather Map New forecast layout! Learn more

10-Day Weather Forecast

Advertisements
Track Severe Weather on mobile